createdAt,value
2023-04-24T00:00:48.096Z,77.86
2023-04-24T00:04:48.039Z,78.58
2023-04-24T00:08:46.045Z,78.36
2023-04-24T00:12:43.990Z,78.78
2023-04-24T00:16:42.010Z,79.30
2023-04-24T00:20:40.004Z,80.00
2023-04-24T00:24:37.988Z,80.20
2023-04-24T00:28:35.947Z,80.21
2023-04-24T00:32:33.993Z,80.12
2023-04-24T00:36:31.970Z,80.56
2023-04-24T00:40:29.972Z,81.93
2023-04-24T00:44:27.939Z,81.98
2023-04-24T00:48:26.961Z,81.92
2023-04-24T00:52:24.967Z,82.28
2023-04-24T00:56:23.004Z,82.51
2023-04-24T01:00:21.923Z,83.09
2023-04-24T01:04:20.187Z,83.87
2023-04-24T01:08:19.909Z,84.30
2023-04-24T01:12:20.104Z,86.00
2023-04-24T01:16:17.984Z,85.85
2023-04-24T01:20:15.903Z,85.97
2023-04-24T01:24:13.897Z,86.82
2023-04-24T01:28:11.894Z,86.26
2023-04-24T01:32:10.902Z,86.41
2023-04-24T01:36:09.885Z,87.65
2023-04-24T01:40:07.871Z,88.32
2023-04-24T01:44:05.934Z,88.51
2023-04-24T01:48:04.904Z,89.52
2023-04-24T01:52:03.117Z,89.02
2023-04-24T01:56:00.872Z,89.85
2023-04-24T01:59:58.972Z,90.14
2023-04-24T02:04:03.922Z,90.67
2023-04-24T02:08:01.989Z,90.59
2023-04-24T02:12:02.902Z,91.38
2023-04-24T02:16:00.982Z,91.76
2023-04-24T02:19:58.821Z,92.40
2023-04-24T02:23:56.953Z,92.83
2023-04-24T02:27:54.833Z,92.69
2023-04-24T02:31:52.949Z,92.74
2023-04-24T02:35:50.837Z,93.18
2023-04-24T02:39:48.823Z,93.79
2023-04-24T02:43:46.780Z,93.89
2023-04-24T02:47:44.903Z,93.66
2023-04-24T02:51:42.779Z,93.85
2023-04-24T02:55:40.807Z,93.64
2023-04-24T02:59:39.905Z,93.26
2023-04-24T03:03:37.958Z,94.33
2023-04-24T03:07:35.785Z,93.87
2023-04-24T03:11:33.860Z,93.57
2023-04-24T03:15:32.814Z,93.80
2023-04-24T03:19:30.865Z,93.86
2023-04-24T03:23:32.726Z,93.90
2023-04-24T03:27:30.790Z,94.18
2023-04-24T03:31:32.778Z,93.91
2023-04-24T03:35:30.824Z,93.94
2023-04-24T03:39:32.774Z,94.02
2023-04-24T03:43:30.856Z,93.46
2023-04-24T03:47:29.896Z,92.59
2023-04-24T03:51:30.768Z,90.68
2023-04-24T03:55:40.732Z,89.16
2023-04-24T03:59:38.841Z,87.88
2023-04-24T04:03:40.896Z,86.54
2023-04-24T04:07:39.760Z,85.68
2023-04-24T04:11:37.695Z,85.04
2023-04-24T04:15:36.896Z,84.28
2023-04-24T04:19:34.789Z,83.60
2023-04-24T04:23:32.755Z,82.69
2023-04-24T04:27:39.677Z,82.22
2023-04-24T04:31:37.793Z,81.79
2023-04-24T04:35:36.669Z,81.34
2023-04-24T04:39:35.738Z,79.85
2023-04-24T04:43:38.725Z,79.23
2023-04-24T04:47:39.711Z,75.27
2023-04-24T04:51:37.659Z,71.67
2023-04-24T04:55:36.686Z,69.33
2023-04-24T04:59:39.698Z,66.79
2023-04-24T05:03:41.758Z,65.60
2023-04-24T05:07:40.641Z,63.59
2023-04-24T05:11:39.686Z,63.06
2023-04-24T05:15:37.628Z,62.52
2023-04-24T05:19:35.752Z,62.56
2023-04-24T05:23:33.681Z,61.76
2023-04-24T05:27:31.666Z,61.81
2023-04-24T05:31:32.748Z,62.56
2023-04-24T05:35:30.698Z,62.98
2023-04-24T05:39:28.675Z,62.45
2023-04-24T05:43:26.648Z,61.95
2023-04-24T05:47:24.639Z,60.97
2023-04-24T05:51:22.702Z,60.96
2023-04-24T05:55:20.686Z,59.92
2023-04-24T05:59:18.659Z,60.14
2023-04-24T06:02:56.716Z,58.74
2023-04-24T06:06:21.393Z,59.01
2023-04-24T06:09:45.624Z,59.92
2023-04-24T06:13:09.696Z,59.51
2023-04-24T06:16:36.112Z,58.12
2023-04-24T06:20:07.269Z,57.83
2023-04-24T06:23:33.676Z,56.19
2023-04-24T06:26:58.354Z,55.97
2023-04-24T06:30:22.118Z,56.79
2023-04-24T06:33:46.049Z,56.66
2023-04-24T06:37:09.896Z,56.38
2023-04-24T06:40:34.588Z,54.10
2023-04-24T06:43:58.716Z,53.81
2023-04-24T06:47:22.707Z,53.02
2023-04-24T06:50:48.112Z,53.58
2023-04-24T06:54:12.272Z,52.47
2023-04-24T06:57:36.143Z,52.27
2023-04-24T07:01:00.003Z,52.39
2023-04-24T07:04:26.347Z,51.98
2023-04-24T07:07:52.373Z,52.50
2023-04-24T07:11:16.784Z,53.27
2023-04-24T07:14:41.995Z,52.76
2023-04-24T07:18:06.090Z,51.89
2023-04-24T07:21:30.102Z,51.86
2023-04-24T07:24:53.938Z,52.10
2023-04-24T07:28:19.075Z,52.23
2023-04-24T07:31:43.176Z,52.13
2023-04-24T07:35:07.846Z,50.88
2023-04-24T07:38:32.607Z,51.88
2023-04-24T07:41:56.542Z,50.52
2023-04-24T07:45:20.477Z,49.80
2023-04-24T07:48:44.479Z,49.79
2023-04-24T07:52:08.768Z,49.65
2023-04-24T07:55:32.862Z,49.36
2023-04-24T07:58:56.724Z,48.94
2023-04-24T08:02:22.908Z,48.21
2023-04-24T08:05:47.232Z,48.95
2023-04-24T08:09:11.341Z,48.11
2023-04-24T08:12:35.522Z,47.53
2023-04-24T08:15:59.416Z,48.75
2023-04-24T08:19:23.605Z,47.90
2023-04-24T08:22:48.357Z,48.26
2023-04-24T08:26:12.808Z,48.22
2023-04-24T08:29:36.644Z,46.55
2023-04-24T08:33:00.579Z,46.80
2023-04-24T08:36:30.435Z,46.48
2023-04-24T08:40:00.275Z,46.85
2023-04-24T08:43:25.385Z,47.11
2023-04-24T08:46:52.427Z,46.78
2023-04-24T08:50:17.269Z,46.61
2023-04-24T08:53:42.360Z,45.98
2023-04-24T08:57:12.618Z,45.90
2023-04-24T09:00:36.590Z,46.05
2023-04-24T09:04:05.996Z,46.07
2023-04-24T09:07:32.438Z,46.42
2023-04-24T09:10:58.523Z,45.03
2023-04-24T09:14:24.719Z,44.07
2023-04-24T09:17:49.303Z,43.52
2023-04-24T09:21:13.869Z,43.73
2023-04-24T09:24:37.744Z,43.95
2023-04-24T09:28:07.934Z,43.22
2023-04-24T09:31:32.249Z,42.61
2023-04-24T09:35:14.067Z,42.13
2023-04-24T09:38:39.603Z,41.84
2023-04-24T09:42:03.467Z,41.57
2023-04-24T09:45:37.631Z,42.89
2023-04-24T09:49:22.410Z,42.39
2023-04-24T09:52:49.145Z,40.88
2023-04-24T09:56:14.215Z,39.20
2023-04-24T09:59:45.155Z,39.63
2023-04-24T10:03:09.457Z,39.77
2023-04-24T10:06:37.204Z,39.11
2023-04-24T10:10:01.589Z,38.99
2023-04-24T10:13:25.889Z,39.20
2023-04-24T10:16:50.657Z,38.52
2023-04-24T10:20:14.888Z,37.54
2023-04-24T10:23:39.745Z,35.22
2023-04-24T10:27:05.002Z,36.81
2023-04-24T10:30:36.348Z,37.45
2023-04-24T10:34:02.063Z,36.55
2023-04-24T10:37:27.975Z,36.37
2023-04-24T10:40:51.945Z,35.20
2023-04-24T10:44:17.360Z,34.96
2023-04-24T10:47:45.473Z,35.33
2023-04-24T10:51:14.122Z,34.72
2023-04-24T10:54:44.286Z,35.29
2023-04-24T10:58:08.171Z,35.97
2023-04-24T11:01:34.369Z,36.11
2023-04-24T11:04:58.397Z,37.00
2023-04-24T11:08:31.510Z,36.40
2023-04-24T11:12:15.474Z,36.15
2023-04-24T11:15:39.261Z,35.69
2023-04-24T11:19:05.034Z,33.71
2023-04-24T11:22:34.350Z,33.60
2023-04-24T11:26:15.422Z,32.97
2023-04-24T11:29:43.923Z,32.46
2023-04-24T11:33:08.363Z,32.01
2023-04-24T11:36:33.778Z,30.77
2023-04-24T11:40:00.796Z,30.57
2023-04-24T11:43:25.978Z,30.94
2023-04-24T11:46:49.854Z,31.69
2023-04-24T11:50:16.241Z,30.38
2023-04-24T11:53:42.206Z,30.54
2023-04-24T11:57:08.756Z,30.12
2023-04-24T12:00:35.308Z,30.54
2023-04-24T12:04:02.598Z,30.98
2023-04-24T12:07:26.687Z,31.24
2023-04-24T12:10:53.366Z,30.04
2023-04-24T12:14:17.247Z,28.41
2023-04-24T12:17:44.147Z,28.31
2023-04-24T12:21:23.115Z,27.85
2023-04-24T12:25:07.056Z,28.63
2023-04-24T12:28:39.857Z,28.01
2023-04-24T12:32:03.922Z,26.13
2023-04-24T12:35:30.892Z,27.06
2023-04-24T12:38:55.504Z,28.39
2023-04-24T12:42:31.810Z,27.43
2023-04-24T12:45:55.795Z,26.65
2023-04-24T12:49:19.765Z,26.07
2023-04-24T12:52:45.384Z,25.63
2023-04-24T12:56:09.265Z,26.02
2023-04-24T12:59:33.273Z,24.94
2023-04-24T13:02:57.377Z,25.02
2023-04-24T13:06:22.396Z,25.03
2023-04-24T13:09:46.432Z,26.04
2023-04-24T13:13:10.954Z,26.84
2023-04-24T13:16:34.970Z,25.71
2023-04-24T13:19:58.828Z,24.84
2023-04-24T13:23:24.227Z,23.24
2023-04-24T13:26:48.277Z,23.87
2023-04-24T13:30:12.711Z,24.51
2023-04-24T13:33:57.233Z,24.04
2023-04-24T13:37:56.125Z,24.12
2023-04-24T13:41:55.271Z,24.57
2023-04-24T13:45:53.272Z,25.20
2023-04-24T13:49:51.195Z,26.39
2023-04-24T13:53:49.125Z,25.58
2023-04-24T13:57:47.259Z,25.58
2023-04-24T14:01:45.158Z,25.43
2023-04-24T14:05:43.159Z,25.25
2023-04-24T14:09:41.116Z,25.39
2023-04-24T14:13:39.145Z,26.12
2023-04-24T14:17:37.181Z,26.52
2023-04-24T14:21:35.108Z,27.08
2023-04-24T14:25:33.106Z,27.05
2023-04-24T14:29:35.288Z,27.43
2023-04-24T14:33:33.176Z,28.03
2023-04-24T14:37:31.151Z,28.05
2023-04-24T14:41:29.098Z,28.37
2023-04-24T14:45:27.210Z,28.52
2023-04-24T14:49:26.111Z,28.76
2023-04-24T14:53:24.147Z,29.11
2023-04-24T14:57:16.476Z,29.13
2023-04-24T15:01:14.188Z,28.92
2023-04-24T15:05:12.473Z,29.27
2023-04-24T15:09:10.074Z,28.65
2023-04-24T15:13:08.159Z,28.88
2023-04-24T15:17:06.308Z,28.76
2023-04-24T15:21:04.034Z,28.54
2023-04-24T15:25:02.181Z,28.53
2023-04-24T15:29:00.058Z,28.68
2023-04-24T15:32:58.265Z,28.98
2023-04-24T15:37:03.091Z,28.57
2023-04-24T15:41:01.137Z,28.30
2023-04-24T15:44:59.044Z,28.27
2023-04-24T15:49:00.185Z,27.80
2023-04-24T15:52:58.044Z,28.04
2023-04-24T15:56:56.147Z,28.01
2023-04-24T16:00:53.984Z,28.12
2023-04-24T16:04:52.215Z,27.77
2023-04-24T16:08:51.103Z,28.77
2023-04-24T16:12:49.065Z,30.06
2023-04-24T16:16:46.984Z,30.95
2023-04-24T16:20:45.079Z,31.31
2023-04-24T16:24:42.987Z,31.44
2023-04-24T16:28:41.101Z,31.29
2023-04-24T16:32:38.999Z,31.77
2023-04-24T16:36:38.187Z,32.09
2023-04-24T16:40:35.963Z,32.22
2023-04-24T16:44:33.990Z,32.45
2023-04-24T16:48:32.013Z,32.99
2023-04-24T16:52:31.036Z,33.44
2023-04-24T16:56:29.008Z,34.01
2023-04-24T17:00:28.008Z,34.73
2023-04-24T17:04:26.304Z,35.59
2023-04-24T17:08:25.000Z,35.85
2023-04-24T17:12:24.201Z,36.18
2023-04-24T17:16:22.017Z,36.61
2023-04-24T17:20:23.334Z,37.29
2023-04-24T17:24:22.498Z,37.84
2023-04-24T17:28:35.931Z,38.18
2023-04-24T17:32:33.956Z,38.59
2023-04-24T17:36:31.953Z,39.04
2023-04-24T17:40:30.016Z,39.10
2023-04-24T17:44:27.901Z,39.40
2023-04-24T17:48:27.002Z,39.71
2023-04-24T17:52:24.982Z,40.08
2023-04-24T17:56:22.972Z,40.43
2023-04-24T18:00:21.934Z,40.86
2023-04-24T18:04:20.261Z,41.36
2023-04-24T18:08:20.102Z,41.70
2023-04-24T18:12:18.044Z,42.12
2023-04-24T18:16:15.918Z,42.42
2023-04-24T18:20:14.003Z,42.89
2023-04-24T18:24:11.984Z,43.23
2023-04-24T18:28:09.953Z,43.78
2023-04-24T18:32:07.939Z,44.19
2023-04-24T18:36:05.939Z,44.44
2023-04-24T18:39:57.143Z,45.09
2023-04-24T18:43:54.912Z,45.75
2023-04-24T18:47:52.930Z,46.71
2023-04-24T18:51:54.345Z,46.70
2023-04-24T18:55:52.845Z,47.07
2023-04-24T18:59:50.903Z,47.19
2023-04-24T19:03:50.120Z,47.14
2023-04-24T19:07:48.926Z,47.27
2023-04-24T19:11:47.879Z,47.32
2023-04-24T19:15:46.813Z,47.35
2023-04-24T19:19:45.810Z,47.35
2023-04-24T19:23:45.959Z,47.54
2023-04-24T19:27:43.840Z,47.69
2023-04-24T19:31:44.968Z,48.06
2023-04-24T19:35:48.900Z,48.39
2023-04-24T19:39:46.836Z,48.50
2023-04-24T19:43:44.783Z,48.66
2023-04-24T19:47:42.948Z,49.05
2023-04-24T19:51:40.789Z,49.57
2023-04-24T19:55:38.807Z,50.38
2023-04-24T19:59:36.789Z,50.88
2023-04-24T20:03:35.205Z,51.25
2023-04-24T20:07:32.841Z,51.42
2023-04-24T20:11:30.822Z,52.04
2023-04-24T20:15:28.809Z,52.11
2023-04-24T20:19:26.832Z,52.30
2023-04-24T20:23:24.767Z,53.75
2023-04-24T20:27:22.865Z,54.81
2023-04-24T20:31:20.805Z,55.23
2023-04-24T20:35:18.755Z,55.14
2023-04-24T20:39:16.731Z,54.82
2023-04-24T20:43:14.862Z,55.55
2023-04-24T20:47:12.663Z,56.15
2023-04-24T20:51:10.716Z,57.02
2023-04-24T20:55:08.854Z,58.21
2023-04-24T20:59:06.777Z,58.78
2023-04-24T21:03:04.842Z,60.61
2023-04-24T21:07:02.744Z,60.94
2023-04-24T21:11:00.712Z,62.12
2023-04-24T21:14:58.748Z,62.65
2023-04-24T21:18:56.721Z,64.13
2023-04-24T21:22:54.702Z,65.26
2023-04-24T21:26:53.755Z,66.06
2023-04-24T21:30:51.733Z,66.82
2023-04-24T21:34:49.742Z,67.91
2023-04-24T21:38:47.687Z,69.02
2023-04-24T21:42:45.667Z,70.04
2023-04-24T21:46:43.924Z,71.89
2023-04-24T21:50:41.760Z,74.10
2023-04-24T21:54:39.703Z,73.94
2023-04-24T21:58:37.703Z,74.29
2023-04-24T22:02:35.898Z,75.56
2023-04-24T22:06:33.752Z,76.25
2023-04-24T22:10:32.645Z,76.84
2023-04-24T22:14:31.752Z,77.59
2023-04-24T22:18:40.055Z,78.07
2023-04-24T22:22:44.621Z,78.75
2023-04-24T22:26:42.694Z,79.73
2023-04-24T22:30:40.677Z,81.41
2023-04-24T22:34:38.757Z,83.03
2023-04-24T22:38:36.602Z,84.43
2023-04-24T22:42:34.602Z,85.72
2023-04-24T22:46:32.550Z,88.79
2023-04-24T22:50:30.655Z,90.40
2023-04-24T22:54:29.934Z,94.16
2023-04-24T22:58:27.641Z,97.02
2023-04-24T23:02:25.706Z,98.81
2023-04-24T23:06:24.550Z,100.00
2023-04-24T23:10:22.556Z,100.00
2023-04-24T23:14:20.584Z,100.00
2023-04-24T23:18:18.651Z,100.00
2023-04-24T23:22:16.547Z,100.00
2023-04-24T23:26:14.570Z,100.00
2023-04-24T23:30:13.525Z,100.00
2023-04-24T23:34:11.601Z,100.00
2023-04-24T23:38:09.589Z,100.00
2023-04-24T23:42:09.510Z,100.00
2023-04-24T23:46:07.576Z,100.00
2023-04-24T23:50:05.492Z,100.00
2023-04-24T23:54:03.545Z,100.00
2023-04-24T23:58:01.534Z,100.00
